Ride Results

Nanango (05-11-1995)
Ride distance: 80.0 km

Outcomes - Nanango (05-11-1995)
Division No. of Entries Retired / DNE Completed Withdrawn Ineligible V/O Percentage Completed
HW 11 - 6 - - 5 54.55%
MW 19 - 7 3 - 9 36.84%
LW 3 - 3 - - - 100.00%
JN 7 - 4 - - 3 57.14%
Totals 40 - 20 3 - 17 50.00%
Results - Nanango (05-11-1995)
No. Rider Horse Place Time Leg Speeds Total
Km/Hr
H/R bpm
Heavyweight
77 Peter Toft Bremervale Mischa 1 (BC) 5:38:00 16.7, 12.3 14.20 30, 45, 50 (Avg:47)
80 Noel Weismann Newbridge Starlight 2 6:23:00 14.6, 10.9 12.53 41, 40, 55 (Avg:47)
79 Rian Newberry Jolly 3 7:14:00 13.2, 9.4 11.06 28, 41, 41 (Avg:41)
71 Kevin Cook Numkimbil 4 7:15:00 11.3, 10.7 11.03 39, 42, 57 (Avg:49)
73 Gavin Clarke Puck 5 7:27:00 11.1, 10.3 10.74 33, 35, 59 (Avg:47)
75 Ivan Sampson Hillbrae Garnet 6 8:59:00 9.6, 8.2 8.91 34, 44, 50 (Avg:47)
78 David Caldwell Sonval Mukhtar Lame L2 0:00:00 12.9, 9.9 - 34, 45, 60 (Avg:52)
72 Bruce Ericksen Ausden Ruble Heart Rate L2 0:00:00 12.6, 10.0 - 38, 53, 62 (Avg:57)
81 Ken Warne Tanah Merah Neptune Heart Rate L2 0:00:00 13.7, 9.2 - 32, 38, 61 (Avg:49)
74 Rob Scott Remmington Steele Lame L1 0:00:00 11.2 - 35, 40 (Avg:40)
76 John Lynch Rimski's Nickolas Gall or injury P/R 0:00:00 - - 42
Middleweight
33 Derek Armitage Barbaree Sioll 1 6:13:00 14.6, 11.4 12.87 39, 42, 42 (Avg:42)
40 Sandy Watt Cairo 2 6:52:00 12.9, 10.5 11.65 36, 46, 51 (Avg:48)
30 Teena Cashin Liscannor Coppelia 3 7:27:00 11.4, 10.1 10.74 35, 39, 48 (Avg:43)
44 Paul Brown Ramalea Shah 4 7:33:00 11.4, 9.8 10.60 48, 41, 51 (Avg:46)
45 Tony Standfield Captain 5 7:37:00 11.4, 9.7 10.50 38, 43, 49 (Avg:46)
29 Scott Hill Natsu 6 8:20:00 11.1, 8.4 9.60 38, 46, 54 (Avg:50)
28 Lee Kain Campbell 7 8:59:00 9.6, 8.2 8.91 37, 45, 59 (Avg:52)
31 Sharon Foster Abbeline Daniella Lame L2 0:00:00 11.4, 9.8 - 35, 53, 56 (Avg:54)
32 June Petersen Abbeline Elektra Lame L2 0:00:00 12.9, 9.9 - 32, 40, 56 (Avg:48)
26 Donna Renaud Stocktonvale Hephyibeh Heart Rate L2 0:00:00 12.6, 10.0 - 36, 51, 64 (Avg:57)
35 Sue Rhodes Kereena Park Jonathan Lame L2 0:00:00 11.3, 9.7 - 40, 46, 59 (Avg:52)
43 Brook Sample Sharahd Querita Lame L2 0:00:00 11.4, 9.7 - 45, 42, 53 (Avg:47)
34 Julie Washington Topaz Lame L2 0:00:00 11.3, 9.7 - 34, 40, 51 (Avg:45)
27 Tanya Zanow Simeon Que Lame L2 0:00:00 11.2, 9.0 - 32, 42, 51 (Avg:46)
38 Sandra Birch Kamaret Gypsy Widthdrawn L1 0:00:00 - - 31, 41 (Avg:41)
39 Peter Birch Arabian Park Red Widthdrawn L1 0:00:00 - - 32, 40 (Avg:40)
36 Ron Haigh Dolly Lame L1 0:00:00 10.2 - 36, 41 (Avg:41)
41 Wayne Turner Mr-Sura Lame L1 0:00:00 9.5 - 39, 42 (Avg:42)
42 Albie Knight Matta Mia Rasul Widthdrawn P/R 0:00:00 - - 43
Lightweight
18 Anne Jones Kim Dande Tara 1 6:15:00 14.6, 11.3 12.80 34, 47, 54 (Avg:50)
24 Yvonne Knight Dandaloo Dominic 2 7:15:00 11.3, 10.7 11.03 35, 42, 51 (Avg:46)
25 Helena South Banchee 3 8:08:00 11.8, 8.4 9.84 31, 42, 49 (Avg:45)
Junior
7 Mark Haigh Rah Fire (exp UAE) 1 (BC) 6:15:00 14.6, 11.3 12.80 33, 42, 52 (Avg:47)
5 Richard Caldwell Shaiyana 2 7:07:05 12.9, 9.9 11.24 36, 42, 49 (Avg:45)
1 Shyreen Russell Cheekie 3 7:58:00 10.7, 9.4 10.04 34, 46, 59 (Avg:52)
4 Alison Scott Venetia 3 7:58:00 11.1, 9.1 10.04 33, 38, 44 (Avg:41)
2 Nicole Urquhart Gundy Heart Rate L2 0:00:00 13.6, 9.5 - 34, 55, 63 (Avg:59)
3 David Urquhart Run For Jack Lame L1 0:00:00 13.6 - 40, 44 (Avg:44)
6 Tim Weismann Nankeen Namazan Lame L1 0:00:00 13.6 - 46, 52 (Avg:52)